Time;durP1;ratioP1;P1;durP2;ratioP2;P2;SDS_P1;SDS_P2;PMS_P1;PMS_P2;Temp;Humidity;BMP_temperature;BMP_pressure;BME280_temperature;BME280_humidity;BME280_pressure;Samples;Min_cycle;Max_cycle;Signal;HPM_P1;HPM_P2
2024/03/25 00:01:44;;;;;;;3.33;3.03;;;;;;;;;;5062731;28;20037;-75
2024/03/25 00:04:10;;;;;;;2.35;2.15;;;;;;;;;;5062872;28;20056;-76
2024/03/25 00:06:37;;;;;;;2.50;2.30;;;;;;;;;;5061609;28;20036;-76
2024/03/25 00:09:04;;;;;;;3.35;2.10;;;;;;;;;;5043502;28;20040;-76
2024/03/25 00:11:31;;;;;;;2.35;2.15;;;;;;;;;;5032017;28;20038;-76
2024/03/25 00:13:58;;;;;;;2.63;2.05;;;;;;;;;;5060776;28;20082;-75
2024/03/25 00:16:26;;;;;;;1.80;1.70;;;;;;;;;;5061576;28;20036;-76
2024/03/25 00:18:53;;;;;;;1.50;1.40;;;;;;;;;;5061697;28;20048;-76
2024/03/25 00:21:20;;;;;;;1.52;1.42;;;;;;;;;;5061967;28;20127;-76
2024/03/25 00:23:47;;;;;;;1.92;1.30;;;;;;;;;;5061693;28;20135;-75
2024/03/25 00:26:15;;;;;;;0.90;0.90;;;;;;;;;;5060234;28;20140;-75
2024/03/25 00:28:41;;;;;;;1.10;1.00;;;;;;;;;;5063424;28;20159;-74
2024/03/25 00:31:07;;;;;;;0.90;0.90;;;;;;;;;;5061616;28;20102;-75
2024/03/25 00:33:34;;;;;;;1.00;0.93;;;;;;;;;;5061595;28;20037;-75
2024/03/25 00:36:00;;;;;;;1.17;1.05;;;;;;;;;;5061841;28;20107;-75
2024/03/25 00:38:26;;;;;;;0.68;0.68;;;;;;;;;;5042430;28;20562;-74
2024/03/25 00:40:53;;;;;;;1.23;1.00;;;12.70;98.00;;;;;;5048811;28;20536;-75
2024/03/25 00:43:19;;;;;;;0.70;0.70;;;12.60;95.90;;;;;;5060525;28;20029;-74
2024/03/25 00:45:46;;;;;;;1.33;0.75;;;12.50;96.60;;;;;;5062426;28;20028;-74
2024/03/25 00:48:12;;;;;;;1.38;0.60;;;12.50;96.80;;;;;;5062950;28;20044;-74
2024/03/25 00:50:38;;;;;;;0.70;0.70;;;12.50;96.90;;;;;;5060789;28;20090;-75
2024/03/25 00:53:04;;;;;;;0.30;0.30;;;12.40;96.90;;;;;;5061997;28;20040;-75
2024/03/25 00:55:30;;;;;;;0.65;0.50;;;12.40;96.80;;;;;;5061318;28;20037;-75
2024/03/25 00:57:56;;;;;;;1.33;0.50;;;12.40;96.90;;;;;;5061833;28;20042;-74
2024/03/25 01:00:22;;;;;;;0.80;0.40;;;12.30;95.40;;;;;;5059872;28;20032;-76
2024/03/25 01:02:48;;;;;;;0.25;0.25;;;12.30;93.80;;;;;;5061268;28;20041;-76
2024/03/25 01:05:14;;;;;;;0.55;0.50;;;12.30;93.80;;;;;;5060339;28;20044;-76
2024/03/25 01:07:40;;;;;;;0.80;0.30;;;12.30;93.60;;;;;;5042689;28;20479;-76
2024/03/25 01:10:07;;;;;;;0.38;0.30;;;12.20;93.60;;;;;;5042421;28;20040;-76
2024/03/25 01:12:33;;;;;;;1.58;0.45;;;12.20;93.60;;;;;;5061572;28;20032;-74
2024/03/25 01:14:59;;;;;;;0.30;0.30;;;12.20;93.60;;;;;;5042888;28;20039;-74
2024/03/25 01:17:24;;;;;;;0.20;0.20;;;12.30;93.60;;;;;;5059497;28;20028;-75
2024/03/25 01:19:50;;;;;;;0.80;0.38;;;12.20;93.50;;;;;;5043039;28;20099;-75
2024/03/25 01:22:16;;;;;;;0.20;0.20;;;12.20;93.50;;;;;;5042392;28;20041;-75
2024/03/25 01:24:42;;;;;;;0.70;0.20;;;12.20;93.50;;;;;;5061411;28;20030;-76
2024/03/25 01:27:08;;;;;;;2.17;0.25;;;12.20;93.50;;;;;;5060912;28;20600;-75
2024/03/25 01:29:34;;;;;;;0.88;0.30;;;12.20;93.40;;;;;;5046854;28;20028;-75
2024/03/25 01:32:02;;;;;;;0.43;0.30;;;12.20;93.50;;;;;;5060756;28;20037;-76
2024/03/25 01:34:28;;;;;;;0.45;0.30;;;12.10;93.50;;;;;;5059746;28;20157;-76
2024/03/25 01:36:54;;;;;;;1.75;0.20;;;12.20;93.50;;;;;;5041853;28;20070;-77
2024/03/25 01:39:20;;;;;;;0.50;0.30;;;12.10;93.40;;;;;;5061271;28;20044;-78
2024/03/25 01:41:46;;;;;;;0.45;0.20;;;12.10;93.40;;;;;;5059630;28;20039;-75
2024/03/25 01:44:12;;;;;;;0.20;0.20;;;12.10;93.40;;;;;;5059908;28;20048;-75
2024/03/25 01:46:39;;;;;;;0.22;0.20;;;12.10;93.50;;;;;;5060586;28;20119;-75
2024/03/25 01:49:06;;;;;;;0.80;0.25;;;12.10;93.50;;;;;;5060359;28;20082;-75
2024/03/25 01:51:33;;;;;;;1.00;0.30;;;12.10;93.60;;;;;;5060770;28;20043;-76
2024/03/25 01:54:00;;;;;;;0.20;0.20;;;12.00;93.60;;;;;;5042174;28;20498;-76
2024/03/25 01:56:30;;;;;;;0.10;0.10;;;12.00;93.80;;;;;;5042903;28;20529;-76
2024/03/25 01:58:56;;;;;;;0.47;0.10;;;12.00;94.30;;;;;;5060836;28;20040;-76
2024/03/25 02:01:22;;;;;;;0.10;0.10;;;12.00;96.60;;;;;;5059151;28;20036;-76
2024/03/25 02:03:49;;;;;;;0.10;0.10;;;12.00;95.80;;;;;;5045786;28;21035;-76
2024/03/25 02:06:19;;;;;;;0.40;0.20;;;12.00;95.40;;;;;;5062131;28;20033;-76
2024/03/25 02:08:46;;;;;;;0.90;0.32;;;12.00;95.40;;;;;;5059208;28;20356;-75
2024/03/25 02:11:14;;;;;;;0.30;0.20;;;12.00;95.50;;;;;;5058956;28;20044;-76
2024/03/25 02:13:40;;;;;;;0.22;0.10;;;11.90;95.70;;;;;;5059377;28;20120;-76
2024/03/25 02:16:06;;;;;;;1.10;0.20;;;11.90;95.30;;;;;;5060610;28;20127;-76
2024/03/25 02:18:32;;;;;;;0.10;0.10;;;11.90;94.80;;;;;;5059328;28;20057;-75
2024/03/25 02:20:59;;;;;;;0.10;0.10;;;11.90;94.90;;;;;;5059989;28;20032;-76
2024/03/25 02:23:29;;;;;;;0.20;0.20;;;11.90;95.10;;;;;;5042747;28;20124;-76
2024/03/25 02:25:55;;;;;;;0.43;0.10;;;11.90;96.00;;;;;;5059730;28;20033;-76
2024/03/25 02:28:21;;;;;;;0.40;0.10;;;11.90;95.70;;;;;;5059974;28;20603;-75
2024/03/25 02:30:47;;;;;;;0.10;0.10;;;11.80;95.70;;;;;;5040693;28;20064;-76
2024/03/25 02:33:14;;;;;;;0.45;0.10;;;11.80;96.10;;;;;;5042553;28;20036;-77
2024/03/25 02:35:43;;;;;;;0.30;0.10;;;11.80;96.20;;;;;;5059986;28;20095;-76
2024/03/25 02:38:09;;;;;;;1.00;0.10;;;11.80;96.50;;;;;;5042236;28;20052;-76
2024/03/25 02:40:37;;;;;;;0.75;0.10;;;12.00;96.00;;;;;;5058924;28;20033;-76
2024/03/25 02:43:04;;;;;;;0.65;0.10;;;11.80;95.10;;;;;;5059515;28;20055;-76
2024/03/25 02:45:30;;;;;;;0.20;0.10;;;11.80;94.80;;;;;;5059907;28;20482;-76
2024/03/25 02:47:56;;;;;;;0.52;0.10;;;11.80;95.20;;;;;;5059673;28;20025;-76
2024/03/25 02:50:22;;;;;;;0.17;0.10;;;11.70;95.80;;;;;;5060620;28;20545;-76
2024/03/25 02:52:48;;;;;;;0.10;0.10;;;11.70;96.20;;;;;;5046302;28;20040;-76
2024/03/25 02:55:14;;;;;;;0.10;0.10;;;11.70;96.10;;;;;;5059439;28;20037;-75
2024/03/25 02:57:40;;;;;;;0.10;0.10;;;11.70;96.00;;;;;;5059326;28;20502;-76
2024/03/25 03:00:08;;;;;;;0.52;0.20;;;11.70;95.70;;;;;;5058375;28;20040;-76
2024/03/25 03:02:34;;;;;;;0.85;0.10;;;11.70;96.00;;;;;;5059785;28;20068;-76
2024/03/25 03:05:02;;;;;;;0.25;0.10;;;11.60;95.90;;;;;;5041113;28;20083;-75
2024/03/25 03:07:28;;;;;;;1.02;0.10;;;11.70;96.20;;;;;;5042507;28;20082;-76
2024/03/25 03:09:54;;;;;;;0.10;0.10;;;11.70;95.80;;;;;;5043842;28;20045;-76
2024/03/25 03:12:20;;;;;;;0.13;0.10;;;11.60;95.90;;;;;;5049585;28;20041;-75
2024/03/25 03:14:46;;;;;;;0.60;0.20;;;11.60;96.10;;;;;;5062701;28;20041;-75
2024/03/25 03:17:12;;;;;;;1.27;0.20;;;11.60;96.30;;;;;;5028909;28;20094;-74
2024/03/25 03:19:38;;;;;;;0.30;0.10;;;11.60;96.20;;;;;;5068855;28;20571;-75
2024/03/25 03:22:04;;;;;;;0.30;0.10;;;11.50;95.30;;;;;;5082937;28;20039;-75
2024/03/25 03:24:30;;;;;;;0.20;0.20;;;11.60;95.20;;;;;;5065142;28;20025;-75
2024/03/25 03:26:56;;;;;;;0.20;0.20;;;11.60;95.40;;;;;;5082378;28;20050;-75
2024/03/25 03:29:22;;;;;;;1.17;0.10;;;11.50;95.30;;;;;;5082836;28;20036;-76
2024/03/25 03:31:50;;;;;;;0.28;0.20;;;11.50;96.00;;;;;;5084059;28;20067;-75
2024/03/25 03:34:16;;;;;;;0.28;0.20;;;11.50;96.40;;;;;;5084090;28;20066;-76
2024/03/25 03:36:42;;;;;;;0.32;0.10;;;11.50;96.30;;;;;;5064227;28;20039;-77
2024/03/25 03:39:09;;;;;;;0.10;0.10;;;11.50;96.50;;;;;;5070301;28;20075;-76
2024/03/25 03:41:35;;;;;;;0.10;0.10;;;11.50;96.30;;;;;;5082030;28;20032;-75
2024/03/25 03:44:02;;;;;;;0.30;0.20;;;11.50;96.00;;;;;;5081100;28;20032;-75
2024/03/25 03:46:28;;;;;;;0.47;0.10;;;11.50;96.40;;;;;;5082135;28;20035;-76
2024/03/25 03:48:54;;;;;;;0.47;0.30;;;11.40;96.40;;;;;;5064457;28;20051;-75
2024/03/25 03:51:20;;;;;;;0.60;0.20;;;11.40;96.20;;;;;;5083018;28;20063;-77
2024/03/25 03:53:46;;;;;;;0.22;0.20;;;11.40;96.90;;;;;;5063874;28;20126;-78
2024/03/25 03:56:12;;;;;;;0.30;0.20;;;11.40;97.60;;;;;;5053689;28;20395;-77
2024/03/25 03:58:38;;;;;;;1.75;0.20;;;11.50;97.70;;;;;;5081258;28;20032;-76
2024/03/25 04:01:05;;;;;;;0.10;0.10;;;;;;;;;;5064733;28;20028;-78
2024/03/25 04:03:31;;;;;;;0.30;0.30;;;;;;;;;;5081646;28;20089;-77
2024/03/25 04:05:58;;;;;;;0.20;0.20;;;;;;;;;;5067959;28;20078;-77
2024/03/25 04:08:25;;;;;;;0.50;0.28;;;;;;;;;;5051370;28;21252;-77
2024/03/25 04:10:52;;;;;;;0.30;0.20;;;;;;;;;;5081927;28;20036;-77
2024/03/25 04:13:19;;;;;;;1.13;0.20;;;;;;;;;;5080444;28;20559;-78
2024/03/25 04:15:46;;;;;;;0.10;0.10;;;;;;;;;;5064879;28;20483;-77
2024/03/25 04:18:14;;;;;;;0.20;0.20;;;;;;;;;;5074274;28;20049;-78
2024/03/25 04:20:41;;;;;;;0.38;0.30;;;;;;;;;;5027590;28;20037;-78
2024/03/25 04:23:07;;;;;;;0.20;0.20;;;;;;;;;;5042625;28;20125;-77
2024/03/25 04:25:37;;;;;;;0.40;0.30;;;;;;;;;;5030663;28;20031;-78
2024/03/25 04:28:04;;;;;;;0.22;0.20;;;;;;;;;;5045431;28;20020;-81
2024/03/25 04:30:32;;;;;;;0.30;0.30;;;;;;;;;;5043398;28;20131;-80
2024/03/25 04:32:59;;;;;;;1.33;0.30;;;;;;;;;;5043391;28;20495;-81
2024/03/25 04:35:26;;;;;;;0.35;0.20;;;;;;;;;;5059537;28;20068;-79
2024/03/25 04:37:55;;;;;;;0.20;0.20;;;;;;;;;;5060577;28;20037;-77
2024/03/25 04:40:22;;;;;;;0.40;0.22;;;;;;;;;;5061337;28;20036;-78
2024/03/25 04:42:49;;;;;;;0.43;0.30;;;;;;;;;;5060459;28;20137;-78
2024/03/25 04:45:15;;;;;;;0.50;0.30;;;;;;;;;;5062486;28;20123;-78
2024/03/25 04:47:42;;;;;;;1.42;0.50;;;;;;;;;;5061736;28;20028;-79
2024/03/25 04:50:09;;;;;;;1.75;0.75;;;;;;;;;;5044795;28;20059;-78
2024/03/25 04:52:35;;;;;;;1.40;0.85;;;;;;;;;;5042514;28;20052;-78
2024/03/25 04:55:02;;;;;;;1.48;1.30;;;;;;;;;;5060225;28;20032;-77
2024/03/25 04:57:28;;;;;;;1.63;1.20;;;;;;;;;;5030991;28;20470;-77
2024/03/25 04:59:55;;;;;;;1.00;0.90;;;;;;;;;;5061116;28;20039;-78
2024/03/25 05:02:21;;;;;;;1.35;0.90;;;;;;;;;;5061297;28;20140;-79
2024/03/25 05:04:47;;;;;;;2.13;1.05;;;;;;;;;;5040701;28;20040;-77
2024/03/25 05:07:14;;;;;;;1.90;1.00;;;;;;;;;;5057786;28;20043;-77
2024/03/25 05:09:40;;;;;;;3.20;1.08;;;;;;;;;;5059451;28;20028;-78
2024/03/25 05:12:07;;;;;;;3.00;1.33;;;;;;;;;;5029088;28;20788;-78
2024/03/25 05:14:33;;;;;;;3.58;1.55;;;;;;;;;;5057864;28;20041;-78
2024/03/25 05:17:01;;;;;;;2.15;1.70;;;;;;;;;;5058485;28;20033;-77
2024/03/25 05:19:27;;;;;;;3.60;1.60;;;;;;;;;;5077608;28;20067;-77
2024/03/25 05:21:54;;;;;;;3.72;2.45;;;;;;;;;;5082478;28;20028;-78
2024/03/25 05:24:20;;;;;;;3.63;2.08;;;;;;;;;;5080693;28;20028;-77
2024/03/25 05:26:47;;;;;;;2.85;1.60;;;;;;;;;;5080714;28;20067;-77
2024/03/25 05:29:13;;;;;;;2.78;1.48;;;;;;;;;;5061497;28;20036;-77
2024/03/25 05:31:41;;;;;;;4.38;1.40;;;;;;;;;;5080048;28;20036;-78
2024/03/25 05:34:10;;;;;;;2.88;1.10;;;;;;;;;;5079609;28;20474;-78
2024/03/25 05:36:36;;;;;;;2.35;1.20;;;;;;;;;;5062412;28;20459;-78
2024/03/25 05:39:04;;;;;;;2.03;0.93;;;;;;;;;;5061779;28;20109;-79
2024/03/25 05:41:31;;;;;;;1.00;0.73;;;;;;;;;;5049933;28;20252;-77
2024/03/25 05:43:59;;;;;;;1.85;1.00;;;;;;;;;;5079971;28;20118;-77
2024/03/25 05:46:26;;;;;;;1.77;1.10;;;;;;;;;;5079776;28;20054;-81
2024/03/25 05:48:53;;;;;;;1.75;0.80;;;;;;;;;;5048563;28;20056;-78
2024/03/25 05:51:21;;;;;;;2.17;0.90;;;;;;;;;;5078657;28;20082;-79
2024/03/25 05:53:48;;;;;;;3.20;0.77;;;;;;;;;;5079362;28;20082;-78
2024/03/25 05:56:15;;;;;;;0.70;0.70;;;;;;;;;;5078847;28;20566;-79
2024/03/25 05:58:42;;;;;;;1.35;0.77;;;;;;;;;;5080444;28;20124;-79
2024/03/25 06:01:09;;;;;;;1.90;0.77;;;;;;;;;;5079417;28;20039;-79
2024/03/25 06:03:37;;;;;;;1.17;0.65;;;;;;;;;;5081080;28;20036;-79
2024/03/25 06:06:04;;;;;;;1.98;0.60;;;;;;;;;;5080871;28;20204;-79
2024/03/25 06:08:32;;;;;;;2.15;0.90;;;;;;;;;;5032844;28;20433;-80
2024/03/25 06:11:03;;;;;;;2.92;0.52;;;;;;;;;;5079468;28;20094;-80
2024/03/25 06:13:30;;;;;;;1.90;0.73;;;;;;;;;;5065338;28;20096;-79
2024/03/25 06:15:58;;;;;;;0.90;0.40;;;;;;;;;;5079532;28;20035;-80
2024/03/25 06:18:25;;;;;;;1.60;0.75;;;;;;;;;;5070605;28;20052;-78
2024/03/25 06:20:53;;;;;;;1.20;0.50;;;;;;;;;;5059526;28;20029;-80
2024/03/25 06:23:27;;;;;;;0.65;0.60;;;;;;;;;;5058185;28;20483;-78
2024/03/25 06:25:56;;;;;;;1.33;0.50;;;;;;;;;;5058287;28;20040;-79
2024/03/25 06:28:23;;;;;;;1.77;0.73;;;;;;;;;;5058896;28;20168;-79
2024/03/25 06:36:22;;;;;;;;;;;;;;;;;;5043447;28;20060;-79
2024/03/25 06:38:48;;;;;;;;;;;;;;;;;;5042210;28;19927;-80
2024/03/25 06:41:14;;;;;;;;;;;;;;;;;;5060146;28;19916;-78
2024/03/25 06:43:41;;;;;;;0.70;0.70;;;;;;;;;;5062467;28;19955;-78
2024/03/25 06:46:08;;;;;;;1.30;0.68;;;;;;;;;;5062944;28;20133;-78
2024/03/25 06:48:35;;;;;;;0.88;0.50;;;;;;;;;;5063850;28;20029;-79
2024/03/25 06:51:20;;;;;;;0.73;0.70;;;;;;;;;;5062733;28;20565;-79
2024/03/25 06:53:46;;;;;;;0.97;0.60;;;;;;;;;;5044628;28;20036;-78
2024/03/25 06:56:12;;;;;;;0.85;0.40;;;;;;;;;;5062637;28;20789;-78
2024/03/25 06:58:39;;;;;;;0.60;0.32;;;;;;;;;;5062659;28;20094;-79
2024/03/25 07:01:07;;;;;;;0.63;0.52;;;;;;;;;;5063153;28;20105;-80
2024/03/25 07:03:34;;;;;;;1.17;0.60;;;;;;;;;;5032671;28;20090;-80
2024/03/25 07:06:00;;;;;;;1.17;0.50;;;;;;;;;;5062147;28;20035;-80
2024/03/25 07:08:33;;;;;;;1.10;0.50;;;;;;;;;;5045630;28;20032;-80
2024/03/25 07:10:59;;;;;;;1.23;0.60;;;;;;;;;;5062689;28;20071;-78
2024/03/25 07:13:26;;;;;;;1.63;0.50;;;;;;;;;;5044748;28;20082;-79
2024/03/25 07:18:37;;;;;;;0.70;0.60;;;;;;;;;;5063714;28;20044;-80
2024/03/25 07:21:04;;;;;;;1.00;0.68;;;;;;;;;;5061349;28;20036;-81
2024/03/25 07:23:30;;;;;;;1.42;0.70;;;;;;;;;;5063428;28;20025;-80
2024/03/25 07:25:56;;;;;;;3.70;0.88;;;;;;;;;;5044212;28;20029;-80
2024/03/25 07:28:23;;;;;;;0.82;0.50;;;;;;;;;;5062472;28;20040;-76
2024/03/25 07:33:35;;;;;;;;;;;14.40;79.60;;;;;;5033256;28;20032;-82
2024/03/25 07:36:01;;;;;;;;;;;14.40;65.90;;;;;;5045083;28;19920;-82
2024/03/25 07:38:27;;;;;;;1.52;0.90;;;14.40;65.10;;;;;;5046562;28;20358;-82
2024/03/25 07:40:53;;;;;;;2.38;0.70;;;14.40;65.20;;;;;;5063059;28;20567;-82
2024/03/25 07:43:19;;;;;;;1.98;0.95;;;14.40;64.90;;;;;;5062713;28;20124;-80
2024/03/25 07:45:45;;;;;;;1.38;0.77;;;14.40;65.10;;;;;;5048234;28;20387;-81
2024/03/25 07:48:11;;;;;;;0.75;0.73;;;14.40;64.50;;;;;;5062358;28;20086;-82
2024/03/25 07:50:37;;;;;;;2.30;0.88;;;14.40;64.60;;;;;;5043309;28;20033;-81
2024/03/25 07:53:04;;;;;;;1.17;0.65;;;14.30;64.30;;;;;;5061807;28;20033;-81
2024/03/25 07:55:31;;;;;;;1.52;0.65;;;14.30;64.60;;;;;;5061205;28;20102;-81
2024/03/25 07:57:57;;;;;;;3.38;0.80;;;14.30;64.50;;;;;;5044203;28;20029;-81
2024/03/25 08:00:23;;;;;;;2.58;0.90;;;14.30;64.50;;;;;;5028275;28;20028;-82
2024/03/25 08:02:49;;;;;;;1.85;1.00;;;14.30;64.60;;;;;;5062024;28;20029;-82
2024/03/25 08:05:16;;;;;;;2.75;1.00;;;14.40;64.60;;;;;;5031953;28;20041;-80
2024/03/25 08:07:42;;;;;;;1.70;0.80;;;14.30;65.60;;;;;;5043911;28;20475;-81
2024/03/25 08:10:08;;;;;;;1.27;0.82;;;14.30;65.30;;;;;;5042977;28;20044;-81
2024/03/25 08:12:34;;;;;;;1.40;0.80;;;14.30;65.40;;;;;;5043296;28;20037;-81
2024/03/25 08:15:00;;;;;;;1.70;1.20;;;14.30;65.30;;;;;;5062235;28;20047;-81
2024/03/25 08:17:26;;;;;;;1.88;1.13;;;14.30;65.20;;;;;;5031757;28;20499;-81
2024/03/25 08:19:52;;;;;;;2.50;0.90;;;14.30;65.10;;;;;;5062518;28;20039;-81
2024/03/25 08:22:19;;;;;;;2.45;1.10;;;14.30;65.00;;;;;;5063542;28;20032;-81
2024/03/25 08:24:46;;;;;;;2.90;1.08;;;14.30;65.00;;;;;;5043018;28;20032;-81
2024/03/25 08:27:12;;;;;;;0.80;0.80;;;14.40;65.30;;;;;;5045127;28;20802;-81
2024/03/25 08:29:38;;;;;;;2.35;1.10;;;14.40;65.50;;;;;;5043524;28;20036;-81
2024/03/25 08:32:04;;;;;;;2.88;1.10;;;14.50;65.50;;;;;;5009904;28;20032;-81
2024/03/25 08:34:30;;;;;;;2.72;1.35;;;14.50;65.50;;;;;;5031006;28;20056;-81
2024/03/25 08:36:56;;;;;;;1.67;1.00;;;14.40;65.30;;;;;;5043720;28;20115;-81
2024/03/25 08:39:22;;;;;;;1.83;1.10;;;14.40;65.70;;;;;;5062051;28;20175;-79
2024/03/25 08:41:48;;;;;;;1.45;0.95;;;14.50;65.70;;;;;;5044880;28;20047;-80
2024/03/25 08:44:14;;;;;;;2.75;1.05;;;14.50;65.70;;;;;;5042080;28;20548;-81
2024/03/25 08:46:41;;;;;;;2.30;1.27;;;14.50;65.90;;;;;;5042577;28;20033;-80
2024/03/25 08:49:07;;;;;;;2.55;1.17;;;14.40;65.90;;;;;;5061645;28;20119;-80
2024/03/25 08:51:34;;;;;;;4.40;1.00;;;14.50;65.50;;;;;;5060848;28;20626;-83
2024/03/25 08:54:00;;;;;;;1.67;0.93;;;14.50;65.30;;;;;;5014067;28;20036;-82
2024/03/25 08:56:26;;;;;;;4.57;1.45;;;14.50;65.30;;;;;;5044553;28;20051;-81
2024/03/25 08:58:54;;;;;;;1.23;1.02;;;14.50;65.20;;;;;;5060882;28;20714;-80
2024/03/25 09:01:21;;;;;;;2.55;0.95;;;14.60;65.30;;;;;;5030258;28;20041;-80
2024/03/25 09:03:48;;;;;;;1.38;1.13;;;14.60;65.60;;;;;;5060161;28;20020;-80
2024/03/25 09:06:16;;;;;;;1.38;0.88;;;14.60;65.30;;;;;;5061571;28;20044;-80
2024/03/25 09:11:26;;;;;;;2.05;0.85;;;14.60;65.60;;;;;;5061263;28;20498;-80
2024/03/25 09:14:12;;;;;;;2.38;0.93;;;14.60;65.50;;;;;;5059695;28;20062;-82
2024/03/25 09:16:38;;;;;;;1.17;0.77;;;14.60;65.50;;;;;;5061894;28;20041;-81
2024/03/25 09:19:04;;;;;;;1.65;1.20;;;14.60;65.80;;;;;;5059778;28;20506;-82
2024/03/25 09:21:31;;;;;;;2.28;1.08;;;14.60;65.90;;;;;;5047346;28;20040;-82
2024/03/25 09:23:58;;;;;;;1.45;1.10;;;14.50;65.50;;;;;;5041587;28;20469;-80
2024/03/25 09:26:24;;;;;;;1.10;0.82;;;14.50;65.70;;;;;;5060607;28;20036;-81
2024/03/25 09:28:50;;;;;;;2.53;1.10;;;14.50;65.70;;;;;;5060897;28;20480;-79
2024/03/25 09:31:16;;;;;;;3.22;1.58;;;14.50;65.80;;;;;;5061066;28;20044;-80
2024/03/25 09:33:42;;;;;;;2.70;1.25;;;14.50;66.00;;;;;;5060911;28;20511;-80
2024/03/25 09:36:11;;;;;;;2.22;1.13;;;14.50;65.90;;;;;;5043751;28;20064;-80
2024/03/25 09:38:37;;;;;;;1.73;0.90;;;14.50;65.90;;;;;;5041729;28;20043;-80
2024/03/25 09:41:03;;;;;;;1.88;1.38;;;14.50;66.10;;;;;;5062970;28;20036;-81
2024/03/25 09:43:50;;;;;;;2.35;1.13;;;14.50;66.30;;;;;;5059318;28;20496;-82
2024/03/25 09:46:16;;;;;;;2.72;1.33;;;14.50;66.10;;;;;;5041729;28;20043;-81
2024/03/25 09:48:43;;;;;;;3.03;1.30;;;14.50;66.00;;;;;;5058086;28;20669;-81
2024/03/25 09:51:12;;;;;;;3.97;1.63;;;14.50;66.30;;;;;;5057816;28;20154;-82
2024/03/25 09:53:38;;;;;;;2.72;1.55;;;14.50;66.60;;;;;;5057734;28;20068;-81
2024/03/25 09:56:05;;;;;;;2.47;1.08;;;14.50;66.40;;;;;;5057247;28;20036;-82
2024/03/25 09:58:32;;;;;;;2.88;1.20;;;14.50;66.80;;;;;;5059168;28;20593;-80
2024/03/25 10:01:00;;;;;;;3.20;1.35;;;14.50;67.10;;;;;;5058874;28;20811;-80
2024/03/25 10:03:26;;;;;;;3.97;1.17;;;14.50;67.10;;;;;;5058556;28;20802;-80
2024/03/25 10:05:52;;;;;;;5.32;1.42;;;14.50;67.20;;;;;;5057910;28;20040;-81
2024/03/25 10:08:30;;;;;;;2.83;1.13;;;14.50;67.20;;;;;;5058520;28;20876;-81
2024/03/25 10:10:56;;;;;;;2.33;1.33;;;14.40;67.20;;;;;;5057521;28;20029;-80
2024/03/25 10:13:22;;;;;;;3.97;1.40;;;14.50;67.90;;;;;;5039650;28;20051;-80
2024/03/25 10:15:49;;;;;;;2.80;1.20;;;14.50;68.30;;;;;;5057042;28;20135;-80
2024/03/25 10:18:15;;;;;;;3.08;1.50;;;14.50;69.40;;;;;;5070340;28;20044;-80
2024/03/25 10:20:51;;;;;;;3.50;1.40;;;14.50;77.20;;;;;;5081550;28;20036;-80
2024/03/25 10:23:22;;;;;;;3.40;1.40;;;14.50;83.40;;;;;;5081912;28;20060;-79
2024/03/25 10:25:48;;;;;;;2.60;1.45;;;14.50;87.20;;;;;;5081987;28;20490;-81
2024/03/25 10:28:14;;;;;;;1.73;1.40;;;14.50;88.20;;;;;;5081350;28;20486;-80
2024/03/25 10:30:41;;;;;;;1.63;1.20;;;14.50;89.00;;;;;;5084109;28;20059;-81
2024/03/25 10:33:08;;;;;;;2.92;1.40;;;14.50;89.10;;;;;;5080881;28;20887;-81
2024/03/25 10:35:35;;;;;;;3.42;1.10;;;14.60;89.40;;;;;;5062874;28;20048;-79
2024/03/25 10:38:06;;;;;;;3.40;1.42;;;14.50;89.10;;;;;;5081360;28;20859;-80
2024/03/25 10:40:34;;;;;;;3.15;1.45;;;14.50;89.00;;;;;;5081219;28;20130;-80
2024/03/25 10:43:16;;;;;;;4.88;1.33;;;14.50;89.00;;;;;;5081672;28;20024;-81
2024/03/25 10:45:45;;;;;;;3.58;1.40;;;14.50;89.10;;;;;;5083259;28;20418;-81
2024/03/25 10:48:24;;;;;;;2.53;1.27;;;14.50;89.30;;;;;;5063732;28;20445;-82
2024/03/25 10:50:51;;;;;;;2.05;1.20;;;14.50;89.40;;;;;;5080842;28;20165;-80
2024/03/25 10:53:19;;;;;;;4.30;1.58;;;14.60;89.50;;;;;;5080329;28;20566;-79
2024/03/25 10:55:53;;;;;;;2.03;1.27;;;14.60;89.30;;;;;;5081753;28;20047;-80
2024/03/25 10:58:21;;;;;;;2.28;1.33;;;14.60;89.70;;;;;;5082626;28;20193;-80
2024/03/25 11:00:50;;;;;;;2.75;1.23;;;14.60;89.30;;;;;;5080591;28;20058;-79
2024/03/25 11:03:17;;;;;;;2.22;1.20;;;14.60;89.60;;;;;;5064498;28;20035;-79
2024/03/25 11:05:43;;;;;;;2.92;1.30;;;14.60;89.80;;;;;;5080862;28;20155;-81
2024/03/25 11:08:16;;;;;;;3.72;1.40;;;14.60;89.80;;;;;;5080968;28;20039;-80
2024/03/25 11:10:47;;;;;;;3.05;1.38;;;14.50;89.50;;;;;;5064886;28;20432;-81
2024/03/25 11:13:14;;;;;;;1.98;1.27;;;14.60;89.70;;;;;;5055924;28;20036;-81
2024/03/25 11:15:44;;;;;;;1.75;1.20;;;14.60;89.90;;;;;;5062680;28;20024;-80
2024/03/25 11:18:16;;;;;;;4.10;1.30;;;14.60;90.00;;;;;;5072998;28;20044;-80
2024/03/25 11:20:45;;;;;;;3.53;1.42;;;14.60;90.20;;;;;;5061850;28;20492;-80
2024/03/25 11:23:13;;;;;;;2.78;1.20;;;14.60;90.10;;;;;;5061000;28;20060;-80
2024/03/25 11:25:40;;;;;;;3.05;1.20;;;14.60;90.10;;;;;;5061716;28;20130;-80
2024/03/25 11:28:08;;;;;;;2.17;1.48;;;14.60;90.30;;;;;;5047247;28;20387;-80
2024/03/25 11:30:52;;;;;;;3.65;1.30;;;14.70;90.30;;;;;;5059358;28;20037;-80
2024/03/25 11:33:22;;;;;;;3.03;1.55;;;14.60;90.30;;;;;;5059485;28;20136;-80
2024/03/25 11:35:49;;;;;;;4.75;2.50;;;14.60;90.30;;;;;;5041784;28;20032;-81
2024/03/25 11:38:16;;;;;;;3.65;2.90;;;14.60;90.20;;;;;;5042592;28;20071;-81
2024/03/25 11:40:44;;;;;;;3.78;2.30;;;14.60;90.10;;;;;;5061196;28;20044;-80
2024/03/25 11:43:17;;;;;;;3.38;1.70;;;14.60;90.30;;;;;;5060499;28;20037;-81
2024/03/25 11:45:43;;;;;;;3.03;2.00;;;14.60;90.50;;;;;;5048769;28;20463;-81
2024/03/25 11:48:10;;;;;;;5.70;2.08;;;14.60;90.50;;;;;;5061886;28;20035;-80
2024/03/25 11:50:36;;;;;;;3.00;1.70;;;14.60;90.40;;;;;;5042517;28;20402;-80
2024/03/25 11:53:04;;;;;;;2.85;1.50;;;14.60;90.30;;;;;;5059126;28;20499;-80
2024/03/25 11:55:30;;;;;;;4.65;1.60;;;14.60;90.50;;;;;;5045863;28;20056;-80
2024/03/25 11:57:57;;;;;;;3.85;1.75;;;14.60;90.60;;;;;;5042031;28;20135;-79
2024/03/25 12:00:24;;;;;;;2.47;1.50;;;14.60;90.60;;;;;;5058605;28;20036;-77
2024/03/25 12:02:52;;;;;;;3.97;1.60;;;14.60;90.60;;;;;;5060343;28;20043;-79
2024/03/25 12:05:18;;;;;;;3.45;1.60;;;14.60;90.40;;;;;;5057950;28;20618;-80
2024/03/25 12:07:44;;;;;;;3.58;1.40;;;14.60;90.50;;;;;;5059282;28;20546;-80
2024/03/25 12:12:57;;;;;;;4.72;1.50;;;14.60;90.70;;;;;;5059904;28;20434;-78
2024/03/25 12:15:23;;;;;;;2.50;1.67;;;14.50;90.70;;;;;;5041921;28;20037;-79
2024/03/25 12:17:51;;;;;;;2.28;1.30;;;14.50;90.80;;;;;;5062011;28;20048;-80
2024/03/25 12:20:17;;;;;;;2.05;1.20;;;14.50;90.60;;;;;;5015977;28;20445;-80
2024/03/25 12:22:44;;;;;;;3.28;1.40;;;14.50;90.70;;;;;;5031344;28;20040;-80
2024/03/25 12:25:10;;;;;;;3.65;1.50;;;14.50;90.80;;;;;;5061036;28;20028;-80
2024/03/25 12:27:38;;;;;;;2.50;1.48;;;14.50;90.80;;;;;;5060659;28;20032;-81
2024/03/25 12:30:07;;;;;;;2.72;1.38;;;14.50;90.80;;;;;;5047470;28;20036;-83
2024/03/25 12:32:45;;;;;;;2.30;1.30;;;14.50;91.10;;;;;;5042479;28;20652;-79
2024/03/25 12:35:13;;;;;;;3.63;1.88;;;14.50;91.10;;;;;;5047776;28;20033;-80
2024/03/25 12:37:40;;;;;;;3.03;1.50;;;14.50;91.20;;;;;;5062393;28;20033;-80
2024/03/25 12:40:08;;;;;;;2.78;1.27;;;14.50;91.20;;;;;;5042092;28;20417;-80
2024/03/25 12:45:23;;;;;;;3.03;1.60;;;14.40;91.40;;;;;;5060442;28;20052;-80
2024/03/25 12:50:35;;;;;;;2.33;1.55;;;14.40;91.90;;;;;;5047975;28;20033;-80
2024/03/25 12:53:02;;;;;;;3.55;1.70;;;14.40;92.10;;;;;;5030371;28;20051;-81
2024/03/25 12:55:30;;;;;;;2.47;1.70;;;;;;;;;;5047842;28;20044;-80
2024/03/25 12:57:56;;;;;;;4.63;1.42;;;14.20;91.50;;;;;;5059755;28;20369;-81
2024/03/25 13:00:23;;;;;;;3.33;1.70;;;14.40;91.50;;;;;;5060402;28;20067;-81
2024/03/25 13:02:50;;;;;;;3.13;1.80;;;14.40;91.50;;;;;;5059885;28;20037;-80
2024/03/25 13:05:16;;;;;;;3.20;1.63;;;14.40;92.00;;;;;;5043258;28;20043;-80
2024/03/25 13:07:43;;;;;;;3.88;1.73;;;;;;;;;;5060394;28;20032;-80
2024/03/25 13:10:10;;;;;;;2.22;1.50;;;;;;;;;;5018923;28;20565;-81
2024/03/25 13:12:37;;;;;;;2.90;1.50;;;;;;;;;;5047607;28;20029;-81
2024/03/25 13:15:03;;;;;;;5.65;1.85;;;14.30;92.20;;;;;;5031467;28;20028;-82
2024/03/25 13:17:29;;;;;;;3.42;1.45;;;14.30;91.10;;;;;;5061840;28;20148;-80
2024/03/25 13:19:55;;;;;;;3.10;1.45;;;14.40;91.20;;;;;;5063180;28;20558;-81
2024/03/25 13:22:21;;;;;;;2.50;1.40;;;14.40;91.10;;;;;;5059849;28;20033;-80
2024/03/25 13:24:47;;;;;;;2.55;1.60;;;14.40;91.10;;;;;;5046676;28;20071;-79
2024/03/25 13:27:13;;;;;;;4.38;1.75;;;14.40;91.30;;;;;;5059747;28;20471;-81
2024/03/25 13:29:39;;;;;;;2.67;1.30;;;14.40;91.30;;;;;;5059450;28;20040;-81
2024/03/25 13:32:05;;;;;;;2.45;1.50;;;14.40;91.30;;;;;;5043266;28;20052;-80
2024/03/25 13:34:31;;;;;;;3.53;1.60;;;14.40;91.20;;;;;;5042924;28;20116;-81
2024/03/25 13:36:57;;;;;;;2.45;1.73;;;14.30;91.40;;;;;;5060207;28;20067;-81
2024/03/25 13:39:23;;;;;;;2.78;1.65;;;14.30;91.50;;;;;;5060752;28;20085;-81
2024/03/25 13:41:50;;;;;;;2.22;1.65;;;;;;;;;;5059538;28;20029;-81
2024/03/25 13:44:17;;;;;;;3.85;1.60;;;;;;;;;;5013366;28;20090;-81